sensor_id;sensor_type;location;lat;lon;timestamp;pressure;altitude;pressure_sealevel;temperature
71640;BMP280;60912;48.968;10.124;2023-02-01T00:00:52;97125.13;;;4.41
71640;BMP280;60912;48.968;10.124;2023-02-01T00:03:17;97123.16;;;4.42
71640;BMP280;60912;48.968;10.124;2023-02-01T00:05:44;97120.41;;;4.42
71640;BMP280;60912;48.968;10.124;2023-02-01T00:08:18;97121.47;;;4.50
71640;BMP280;60912;48.968;10.124;2023-02-01T00:10:44;97117.72;;;4.47
71640;BMP280;60912;48.968;10.124;2023-02-01T00:13:09;97120.13;;;4.34
71640;BMP280;60912;48.968;10.124;2023-02-01T00:15:35;97115.44;;;4.40
71640;BMP280;60912;48.968;10.124;2023-02-01T00:18:02;97121.69;;;4.46
71640;BMP280;60912;48.968;10.124;2023-02-01T00:20:31;97120.63;;;4.38
71640;BMP280;60912;48.968;10.124;2023-02-01T00:23:02;97111.69;;;4.38
71640;BMP280;60912;48.968;10.124;2023-02-01T00:25:59;97109.25;;;4.45
71640;BMP280;60912;48.968;10.124;2023-02-01T00:28:25;97104.78;;;4.42
71640;BMP280;60912;48.968;10.124;2023-02-01T00:31:06;97106.50;;;4.40
71640;BMP280;60912;48.968;10.124;2023-02-01T00:33:39;97110.75;;;4.46
71640;BMP280;60912;48.968;10.124;2023-02-01T00:36:20;97104.56;;;4.46
71640;BMP280;60912;48.968;10.124;2023-02-01T00:38:46;97100.09;;;4.43
71640;BMP280;60912;48.968;10.124;2023-02-01T00:41:12;97101.06;;;4.45
71640;BMP280;60912;48.968;10.124;2023-02-01T00:43:39;97095.13;;;4.41
71640;BMP280;60912;48.968;10.124;2023-02-01T00:46:04;97095.84;;;4.36
71640;BMP280;60912;48.968;10.124;2023-02-01T00:48:30;97099.34;;;4.42
71640;BMP280;60912;48.968;10.124;2023-02-01T00:51:02;97089.22;;;4.48
71640;BMP280;60912;48.968;10.124;2023-02-01T00:53:28;97084.44;;;4.43
71640;BMP280;60912;48.968;10.124;2023-02-01T00:55:54;97078.91;;;4.32
71640;BMP280;60912;48.968;10.124;2023-02-01T00:58:19;97067.03;;;4.35
71640;BMP280;60912;48.968;10.124;2023-02-01T01:00:45;97072.28;;;4.44
71640;BMP280;60912;48.968;10.124;2023-02-01T01:03:14;97065.41;;;4.49
71640;BMP280;60912;48.968;10.124;2023-02-01T01:05:58;97058.34;;;4.37
71640;BMP280;60912;48.968;10.124;2023-02-01T01:08:27;97067.44;;;4.54
71640;BMP280;60912;48.968;10.124;2023-02-01T01:10:52;97060.75;;;4.61
71640;BMP280;60912;48.968;10.124;2023-02-01T01:13:18;97063.72;;;4.63
71640;BMP280;60912;48.968;10.124;2023-02-01T01:15:47;97062.50;;;4.64
71640;BMP280;60912;48.968;10.124;2023-02-01T01:18:15;97065.22;;;4.64
71640;BMP280;60912;48.968;10.124;2023-02-01T01:20:49;97064.28;;;4.67
71640;BMP280;60912;48.968;10.124;2023-02-01T01:23:14;97056.84;;;4.73
71640;BMP280;60912;48.968;10.124;2023-02-01T01:25:47;97050.94;;;4.80
71640;BMP280;60912;48.968;10.124;2023-02-01T01:28:19;97058.31;;;4.74
71640;BMP280;60912;48.968;10.124;2023-02-01T01:30:44;97056.31;;;4.69
71640;BMP280;60912;48.968;10.124;2023-02-01T01:36:05;97065.78;;;4.68
71640;BMP280;60912;48.968;10.124;2023-02-01T01:41:56;97074.28;;;4.81
71640;BMP280;60912;48.968;10.124;2023-02-01T01:47:26;97068.81;;;4.81
71640;BMP280;60912;48.968;10.124;2023-02-01T01:49:54;97083.75;;;4.91
71640;BMP280;60912;48.968;10.124;2023-02-01T01:52:19;97079.06;;;4.92
71640;BMP280;60912;48.968;10.124;2023-02-01T01:54:50;97076.31;;;4.97
71640;BMP280;60912;48.968;10.124;2023-02-01T01:59:48;97058.69;;;4.98
71640;BMP280;60912;48.968;10.124;2023-02-01T02:02:15;97069.19;;;5.05
71640;BMP280;60912;48.968;10.124;2023-02-01T02:04:43;97058.00;;;5.14
71640;BMP280;60912;48.968;10.124;2023-02-01T02:07:12;97046.09;;;5.06
71640;BMP280;60912;48.968;10.124;2023-02-01T02:09:47;97040.06;;;4.91
71640;BMP280;60912;48.968;10.124;2023-02-01T02:12:15;97056.47;;;4.91
71640;BMP280;60912;48.968;10.124;2023-02-01T02:14:41;97041.84;;;5.05
71640;BMP280;60912;48.968;10.124;2023-02-01T02:31:38;97022.00;;;5.16
71640;BMP280;60912;48.968;10.124;2023-02-01T02:34:40;97018.31;;;5.19
71640;BMP280;60912;48.968;10.124;2023-02-01T02:37:20;97011.81;;;5.05
71640;BMP280;60912;48.968;10.124;2023-02-01T02:43:15;97001.88;;;5.13
71640;BMP280;60912;48.968;10.124;2023-02-01T02:46:42;97006.38;;;5.22
71640;BMP280;60912;48.968;10.124;2023-02-01T02:49:39;97003.41;;;5.25
71640;BMP280;60912;48.968;10.124;2023-02-01T02:52:18;97000.38;;;5.12
71640;BMP280;60912;48.968;10.124;2023-02-01T02:55:04;96993.94;;;5.15
71640;BMP280;60912;48.968;10.124;2023-02-01T02:57:41;96991.22;;;5.21
71640;BMP280;60912;48.968;10.124;2023-02-01T03:00:42;96994.69;;;5.16
71640;BMP280;60912;48.968;10.124;2023-02-01T03:03:27;96988.47;;;5.15
71640;BMP280;60912;48.968;10.124;2023-02-01T03:06:16;96994.44;;;5.19
71640;BMP280;60912;48.968;10.124;2023-02-01T03:08:43;96992.72;;;5.22
71640;BMP280;60912;48.968;10.124;2023-02-01T03:11:25;96989.97;;;5.22
71640;BMP280;60912;48.968;10.124;2023-02-01T03:14:23;96987.47;;;5.07
71640;BMP280;60912;48.968;10.124;2023-02-01T03:17:20;96980.22;;;4.99
71640;BMP280;60912;48.968;10.124;2023-02-01T03:20:04;96984.97;;;5.09
71640;BMP280;60912;48.968;10.124;2023-02-01T03:22:33;96981.72;;;5.00
71640;BMP280;60912;48.968;10.124;2023-02-01T03:25:17;96974.03;;;5.09
71640;BMP280;60912;48.968;10.124;2023-02-01T03:27:53;96970.06;;;5.10
71640;BMP280;60912;48.968;10.124;2023-02-01T03:30:29;96964.38;;;5.08
71640;BMP280;60912;48.968;10.124;2023-02-01T03:32:58;96954.91;;;5.09
71640;BMP280;60912;48.968;10.124;2023-02-01T03:38:36;96976.03;;;5.03
71640;BMP280;60912;48.968;10.124;2023-02-01T03:41:35;96967.59;;;5.01
71640;BMP280;60912;48.968;10.124;2023-02-01T03:44:26;96969.09;;;5.02
71640;BMP280;60912;48.968;10.124;2023-02-01T03:47:04;96963.88;;;5.04
71640;BMP280;60912;48.968;10.124;2023-02-01T03:49:58;96961.59;;;4.86
71640;BMP280;60912;48.968;10.124;2023-02-01T03:52:34;96960.34;;;4.93
71640;BMP280;60912;48.968;10.124;2023-02-01T03:55:02;96961.41;;;5.06
71640;BMP280;60912;48.968;10.124;2023-02-01T03:57:33;96957.41;;;5.02
71640;BMP280;60912;48.968;10.124;2023-02-01T04:00:09;96960.13;;;5.02
71640;BMP280;60912;48.968;10.124;2023-02-01T04:02:36;96954.91;;;4.98
71640;BMP280;60912;48.968;10.124;2023-02-01T04:05:02;96958.59;;;4.84
71640;BMP280;60912;48.968;10.124;2023-02-01T04:07:27;96943.69;;;4.85
71640;BMP280;60912;48.968;10.124;2023-02-01T04:09:53;96950.13;;;4.76
71640;BMP280;60912;48.968;10.124;2023-02-01T04:12:18;96962.03;;;4.68
71640;BMP280;60912;48.968;10.124;2023-02-01T04:14:47;96957.34;;;4.79
71640;BMP280;60912;48.968;10.124;2023-02-01T04:17:13;96957.56;;;4.76
71640;BMP280;60912;48.968;10.124;2023-02-01T04:19:38;96965.25;;;4.66
71640;BMP280;60912;48.968;10.124;2023-02-01T04:22:03;96972.50;;;4.86
71640;BMP280;60912;48.968;10.124;2023-02-01T04:25:10;96959.88;;;5.00
71640;BMP280;60912;48.968;10.124;2023-02-01T04:31:11;96950.22;;;5.04
71640;BMP280;60912;48.968;10.124;2023-02-01T04:33:50;96956.41;;;5.10
71640;BMP280;60912;48.968;10.124;2023-02-01T04:39:21;96953.44;;;5.03
71640;BMP280;60912;48.968;10.124;2023-02-01T04:41:52;96957.41;;;5.07
71640;BMP280;60912;48.968;10.124;2023-02-01T04:44:20;96965.31;;;4.94
71640;BMP280;60912;48.968;10.124;2023-02-01T04:46:46;96949.44;;;4.93
71640;BMP280;60912;48.968;10.124;2023-02-01T04:49:13;96942.75;;;4.99
71640;BMP280;60912;48.968;10.124;2023-02-01T04:51:50;96950.72;;;5.08
71640;BMP280;60912;48.968;10.124;2023-02-01T04:54:21;96940.28;;;5.12
71640;BMP280;60912;48.968;10.124;2023-02-01T04:56:55;96947.75;;;5.17
71640;BMP280;60912;48.968;10.124;2023-02-01T04:59:23;96946.44;;;4.96
71640;BMP280;60912;48.968;10.124;2023-02-01T05:01:48;96956.88;;;4.98
71640;BMP280;60912;48.968;10.124;2023-02-01T05:04:30;96959.91;;;5.05
71640;BMP280;60912;48.968;10.124;2023-02-01T05:06:58;96953.69;;;5.10
71640;BMP280;60912;48.968;10.124;2023-02-01T05:09:23;96962.66;;;5.16
71640;BMP280;60912;48.968;10.124;2023-02-01T05:11:49;96949.22;;;5.02
71640;BMP280;60912;48.968;10.124;2023-02-01T05:14:33;96952.47;;;5.17
71640;BMP280;60912;48.968;10.124;2023-02-01T05:16:59;96948.25;;;5.21
71640;BMP280;60912;48.968;10.124;2023-02-01T05:19:24;96942.31;;;5.28
71640;BMP280;60912;48.968;10.124;2023-02-01T05:22:06;96945.28;;;5.31
71640;BMP280;60912;48.968;10.124;2023-02-01T05:24:31;96949.69;;;5.00
71640;BMP280;60912;48.968;10.124;2023-02-01T05:26:57;96950.69;;;4.97
71640;BMP280;60912;48.968;10.124;2023-02-01T05:29:30;96936.03;;;4.89
71640;BMP280;60912;48.968;10.124;2023-02-01T05:31:55;96946.25;;;5.05
71640;BMP280;60912;48.968;10.124;2023-02-01T05:34:20;96947.00;;;5.17
71640;BMP280;60912;48.968;10.124;2023-02-01T05:36:52;96936.31;;;5.13
71640;BMP280;60912;48.968;10.124;2023-02-01T05:39:17;96935.31;;;5.05
71640;BMP280;60912;48.968;10.124;2023-02-01T05:41:44;96930.53;;;4.95
71640;BMP280;60912;48.968;10.124;2023-02-01T05:44:10;96936.53;;;4.93
71640;BMP280;60912;48.968;10.124;2023-02-01T05:46:36;96936.31;;;5.02
71640;BMP280;60912;48.968;10.124;2023-02-01T05:49:01;96945.97;;;5.09
71640;BMP280;60912;48.968;10.124;2023-02-01T05:51:27;96935.06;;;5.20
71640;BMP280;60912;48.968;10.124;2023-02-01T05:53:52;96937.06;;;5.19
71640;BMP280;60912;48.968;10.124;2023-02-01T05:56:17;96951.50;;;5.25
71640;BMP280;60912;48.968;10.124;2023-02-01T05:58:43;96951.25;;;5.23
71640;BMP280;60912;48.968;10.124;2023-02-01T06:01:08;96952.00;;;5.24
71640;BMP280;60912;48.968;10.124;2023-02-01T06:03:34;96940.81;;;5.16
71640;BMP280;60912;48.968;10.124;2023-02-01T06:05:59;96945.78;;;5.23
71640;BMP280;60912;48.968;10.124;2023-02-01T06:08:26;96944.78;;;5.15
71640;BMP280;60912;48.968;10.124;2023-02-01T06:11:00;96952.75;;;5.24
71640;BMP280;60912;48.968;10.124;2023-02-01T06:13:26;96950.50;;;5.23
71640;BMP280;60912;48.968;10.124;2023-02-01T06:15:52;96955.69;;;5.26
71640;BMP280;60912;48.968;10.124;2023-02-01T06:18:17;96936.84;;;5.34
71640;BMP280;60912;48.968;10.124;2023-02-01T06:20:43;96931.88;;;5.38
71640;BMP280;60912;48.968;10.124;2023-02-01T06:23:09;96930.88;;;5.19
71640;BMP280;60912;48.968;10.124;2023-02-01T06:25:34;96933.84;;;5.15
71640;BMP280;60912;48.968;10.124;2023-02-01T06:28:18;96929.38;;;5.23
71640;BMP280;60912;48.968;10.124;2023-02-01T06:30:49;96929.66;;;5.25
71640;BMP280;60912;48.968;10.124;2023-02-01T06:33:14;96932.88;;;5.24
71640;BMP280;60912;48.968;10.124;2023-02-01T06:35:41;96919.69;;;5.28
71640;BMP280;60912;48.968;10.124;2023-02-01T06:38:32;96925.19;;;5.39
71640;BMP280;60912;48.968;10.124;2023-02-01T06:41:06;96925.19;;;5.39
71640;BMP280;60912;48.968;10.124;2023-02-01T06:43:34;96917.47;;;5.38
71640;BMP280;60912;48.968;10.124;2023-02-01T06:46:07;96921.19;;;5.35
71640;BMP280;60912;48.968;10.124;2023-02-01T06:48:39;96928.66;;;5.40
71640;BMP280;60912;48.968;10.124;2023-02-01T06:51:22;96944.31;;;5.56
71640;BMP280;60912;48.968;10.124;2023-02-01T07:04:20;96941.78;;;5.58
71640;BMP280;60912;48.968;10.124;2023-02-01T07:07:11;96942.59;;;5.42
71640;BMP280;60912;48.968;10.124;2023-02-01T07:13:04;96960.22;;;5.52
71640;BMP280;60912;48.968;10.124;2023-02-01T07:15:53;96961.19;;;5.60
71640;BMP280;60912;48.968;10.124;2023-02-01T07:18:54;96957.75;;;5.54
71640;BMP280;60912;48.968;10.124;2023-02-01T07:22:08;96975.38;;;5.53
71640;BMP280;60912;48.968;10.124;2023-02-01T07:25:12;96976.34;;;5.61
71640;BMP280;60912;48.968;10.124;2023-02-01T07:27:48;96982.59;;;5.56
71640;BMP280;60912;48.968;10.124;2023-02-01T07:30:20;96979.84;;;5.39
71640;BMP280;60912;48.968;10.124;2023-02-01T07:36:57;96991.00;;;5.24
71640;BMP280;60912;48.968;10.124;2023-02-01T07:39:46;96985.75;;;5.21
71640;BMP280;60912;48.968;10.124;2023-02-01T07:46:11;96991.97;;;5.33
71640;BMP280;60912;48.968;10.124;2023-02-01T07:49:09;96980.28;;;5.32
71640;BMP280;60912;48.968;10.124;2023-02-01T07:51:35;96961.94;;;5.38
71640;BMP280;60912;48.968;10.124;2023-02-01T07:57:28;96965.16;;;5.48
71640;BMP280;60912;48.968;10.124;2023-02-01T08:00:14;96963.44;;;5.50
71640;BMP280;60912;48.968;10.124;2023-02-01T08:02:58;96965.41;;;5.61
71640;BMP280;60912;48.968;10.124;2023-02-01T08:05:24;96975.88;;;5.68
71640;BMP280;60912;48.968;10.124;2023-02-01T08:07:57;96976.88;;;5.71
71640;BMP280;60912;48.968;10.124;2023-02-01T08:10:42;96977.09;;;5.78
71640;BMP280;60912;48.968;10.124;2023-02-01T08:13:08;96970.63;;;5.92
71640;BMP280;60912;48.968;10.124;2023-02-01T08:15:33;96958.94;;;5.92
71640;BMP280;60912;48.968;10.124;2023-02-01T08:18:01;96959.94;;;5.89
71640;BMP280;60912;48.968;10.124;2023-02-01T08:20:45;96957.19;;;5.89
71640;BMP280;60912;48.968;10.124;2023-02-01T08:23:15;96973.63;;;5.83
71640;BMP280;60912;48.968;10.124;2023-02-01T08:25:44;96974.84;;;5.88
71640;BMP280;60912;48.968;10.124;2023-02-01T08:28:19;96970.59;;;6.03
71640;BMP280;60912;48.968;10.124;2023-02-01T08:30:48;96957.44;;;6.02
71640;BMP280;60912;48.968;10.124;2023-02-01T08:33:20;96973.59;;;6.11
71640;BMP280;60912;48.968;10.124;2023-02-01T08:35:45;96954.94;;;6.15
71640;BMP280;60912;48.968;10.124;2023-02-01T08:38:11;96966.34;;;6.19
71640;BMP280;60912;48.968;10.124;2023-02-01T08:40:47;96967.84;;;6.26
71640;BMP280;60912;48.968;10.124;2023-02-01T08:43:18;96958.41;;;6.10
71640;BMP280;60912;48.968;10.124;2023-02-01T08:45:44;96963.91;;;6.04
71640;BMP280;60912;48.968;10.124;2023-02-01T08:48:19;96978.31;;;6.05
71640;BMP280;60912;48.968;10.124;2023-02-01T08:50:57;96985.03;;;6.10
71640;BMP280;60912;48.968;10.124;2023-02-01T08:53:57;96982.56;;;6.00
71640;BMP280;60912;48.968;10.124;2023-02-01T08:56:25;96988.25;;;6.02
71640;BMP280;60912;48.968;10.124;2023-02-01T09:01:25;96986.53;;;5.99
71640;BMP280;60912;48.968;10.124;2023-02-01T09:04:12;96976.81;;;6.04
71640;BMP280;60912;48.968;10.124;2023-02-01T09:06:45;96988.53;;;6.16
71640;BMP280;60912;48.968;10.124;2023-02-01T09:09:22;96989.44;;;6.35
71640;BMP280;60912;48.968;10.124;2023-02-01T09:12:03;96995.88;;;6.54
71640;BMP280;60912;48.968;10.124;2023-02-01T09:14:47;96980.94;;;6.55
71640;BMP280;60912;48.968;10.124;2023-02-01T09:17:12;96977.72;;;6.51
71640;BMP280;60912;48.968;10.124;2023-02-01T09:19:55;96977.97;;;6.53
71640;BMP280;60912;48.968;10.124;2023-02-01T09:22:23;96966.31;;;6.41
71640;BMP280;60912;48.968;10.124;2023-02-01T09:25:08;96980.72;;;6.36
71640;BMP280;60912;48.968;10.124;2023-02-01T09:27:36;96968.78;;;6.45
71640;BMP280;60912;48.968;10.124;2023-02-01T09:30:24;96976.22;;;6.50
71640;BMP280;60912;48.968;10.124;2023-02-01T09:32:53;96982.63;;;6.64
71640;BMP280;60912;48.968;10.124;2023-02-01T09:35:44;96995.34;;;6.61
71640;BMP280;60912;48.968;10.124;2023-02-01T09:47:45;97013.09;;;6.32
71640;BMP280;60912;48.968;10.124;2023-02-01T09:57:32;97040.97;;;6.31
71640;BMP280;60912;48.968;10.124;2023-02-01T10:17:20;97062.31;;;6.66
71640;BMP280;60912;48.968;10.124;2023-02-01T10:29:22;97062.03;;;6.69
71640;BMP280;60912;48.968;10.124;2023-02-01T10:32:22;97060.56;;;6.68
71640;BMP280;60912;48.968;10.124;2023-02-01T10:35:31;97061.22;;;6.85
71640;BMP280;60912;48.968;10.124;2023-02-01T10:41:50;97090.88;;;6.87
71640;BMP280;60912;48.968;10.124;2023-02-01T10:44:44;97083.22;;;6.69
71640;BMP280;60912;48.968;10.124;2023-02-01T10:47:59;97096.88;;;6.74
71640;BMP280;60912;48.968;10.124;2023-02-01T10:56:54;97090.69;;;6.57
71640;BMP280;60912;48.968;10.124;2023-02-01T11:02:55;97077.25;;;6.48
71640;BMP280;60912;48.968;10.124;2023-02-01T11:11:57;97071.25;;;6.61
71640;BMP280;60912;48.968;10.124;2023-02-01T11:14:56;97071.31;;;6.55
71640;BMP280;60912;48.968;10.124;2023-02-01T11:31:11;97057.09;;;6.57
71640;BMP280;60912;48.968;10.124;2023-02-01T11:34:21;97047.38;;;6.61
71640;BMP280;60912;48.968;10.124;2023-02-01T11:37:40;97053.59;;;6.67
71640;BMP280;60912;48.968;10.124;2023-02-01T12:15:27;97010.28;;;7.12
71640;BMP280;60912;48.968;10.124;2023-02-01T12:27:19;97009.03;;;6.61
71640;BMP280;60912;48.968;10.124;2023-02-01T12:44:32;96994.88;;;6.46
71640;BMP280;60912;48.968;10.124;2023-02-01T12:50:51;96987.41;;;6.58
71640;BMP280;60912;48.968;10.124;2023-02-01T13:00:30;96965.91;;;6.73
71640;BMP280;60912;48.968;10.124;2023-02-01T13:06:02;96977.00;;;6.45
71640;BMP280;60912;48.968;10.124;2023-02-01T13:09:15;96977.72;;;6.51
71640;BMP280;60912;48.968;10.124;2023-02-01T13:11:44;96978.00;;;6.42
71640;BMP280;60912;48.968;10.124;2023-02-01T13:14:36;96976.25;;;6.39
71640;BMP280;60912;48.968;10.124;2023-02-01T13:17:09;96974.97;;;6.51
71640;BMP280;60912;48.968;10.124;2023-02-01T13:19:40;96973.78;;;6.41
71640;BMP280;60912;48.968;10.124;2023-02-01T13:22:54;96972.97;;;6.46
71640;BMP280;60912;48.968;10.124;2023-02-01T13:25:51;96976.47;;;6.52
71640;BMP280;60912;48.968;10.124;2023-02-01T13:32:04;96975.47;;;6.55
71640;BMP280;60912;48.968;10.124;2023-02-01T13:35:00;96971.25;;;6.54
71640;BMP280;60912;48.968;10.124;2023-02-01T13:37:39;96964.97;;;6.59
71640;BMP280;60912;48.968;10.124;2023-02-01T13:43:04;96953.78;;;6.57
71640;BMP280;60912;48.968;10.124;2023-02-01T13:45:41;96964.19;;;6.70
71640;BMP280;60912;48.968;10.124;2023-02-01T13:48:22;96956.25;;;6.61
71640;BMP280;60912;48.968;10.124;2023-02-01T13:51:00;96948.53;;;6.59
71640;BMP280;60912;48.968;10.124;2023-02-01T13:53:49;96959.06;;;6.44
71640;BMP280;60912;48.968;10.124;2023-02-01T13:56:19;96950.31;;;6.45
71640;BMP280;60912;48.968;10.124;2023-02-01T13:58:52;96961.81;;;6.44
71640;BMP280;60912;48.968;10.124;2023-02-01T14:04:03;96964.22;;;6.64
71640;BMP280;60912;48.968;10.124;2023-02-01T14:06:44;96957.50;;;6.60
71640;BMP280;60912;48.968;10.124;2023-02-01T14:09:30;96963.72;;;6.60
71640;BMP280;60912;48.968;10.124;2023-02-01T14:12:41;96959.97;;;6.63
71640;BMP280;60912;48.968;10.124;2023-02-01T14:14:53;96958.28;;;6.49
71640;BMP280;60912;48.968;10.124;2023-02-01T14:17:43;96953.81;;;6.52
71640;BMP280;60912;48.968;10.124;2023-02-01T14:20:48;96949.28;;;6.65
71640;BMP280;60912;48.968;10.124;2023-02-01T14:23:22;96942.81;;;6.68
71640;BMP280;60912;48.968;10.124;2023-02-01T14:26:03;96957.50;;;6.65
71640;BMP280;60912;48.968;10.124;2023-02-01T14:28:29;96955.44;;;6.71
71640;BMP280;60912;48.968;10.124;2023-02-01T14:30:56;96969.88;;;6.72
71640;BMP280;60912;48.968;10.124;2023-02-01T14:33:25;96959.47;;;6.59
71640;BMP280;60912;48.968;10.124;2023-02-01T14:36:10;96965.22;;;6.67
71640;BMP280;60912;48.968;10.124;2023-02-01T14:38:53;96966.06;;;6.34
71640;BMP280;60912;48.968;10.124;2023-02-01T14:41:36;96967.28;;;6.33
71640;BMP280;60912;48.968;10.124;2023-02-01T14:44:29;96960.63;;;6.23
71640;BMP280;60912;48.968;10.124;2023-02-01T14:50:07;96965.56;;;6.41
71640;BMP280;60912;48.968;10.124;2023-02-01T14:52:38;96954.84;;;6.37
71640;BMP280;60912;48.968;10.124;2023-02-01T14:58:40;96981.47;;;6.37
71640;BMP280;60912;48.968;10.124;2023-02-01T15:01:25;96988.50;;;6.27
71640;BMP280;60912;48.968;10.124;2023-02-01T15:09:17;96991.97;;;6.22
71640;BMP280;60912;48.968;10.124;2023-02-01T15:12:08;96992.72;;;6.17
71640;BMP280;60912;48.968;10.124;2023-02-01T15:15:18;96986.25;;;6.25
71640;BMP280;60912;48.968;10.124;2023-02-01T15:17:57;96980.00;;;6.36
71640;BMP280;60912;48.968;10.124;2023-02-01T15:20:31;96992.69;;;6.39
71640;BMP280;60912;48.968;10.124;2023-02-01T15:23:05;96983.28;;;6.29
71640;BMP280;60912;48.968;10.124;2023-02-01T15:26:03;96983.28;;;6.29
71640;BMP280;60912;48.968;10.124;2023-02-01T15:28:29;96985.50;;;6.19
71640;BMP280;60912;48.968;10.124;2023-02-01T15:31:03;96992.25;;;6.13
71640;BMP280;60912;48.968;10.124;2023-02-01T15:34:06;96991.50;;;6.06
71640;BMP280;60912;48.968;10.124;2023-02-01T15:36:44;96990.00;;;6.05
71640;BMP280;60912;48.968;10.124;2023-02-01T15:39:31;96989.78;;;5.81
71640;BMP280;60912;48.968;10.124;2023-02-01T15:42:11;96974.34;;;5.95
71640;BMP280;60912;48.968;10.124;2023-02-01T15:44:44;96980.31;;;5.88
71640;BMP280;60912;48.968;10.124;2023-02-01T15:53:31;96996.25;;;6.06
71640;BMP280;60912;48.968;10.124;2023-02-01T15:56:08;96991.50;;;5.95
71640;BMP280;60912;48.968;10.124;2023-02-01T15:58:34;96986.56;;;5.77
71640;BMP280;60912;48.968;10.124;2023-02-01T16:01:03;96987.06;;;5.81
71640;BMP280;60912;48.968;10.124;2023-02-01T16:11:30;96983.06;;;5.93
71640;BMP280;60912;48.968;10.124;2023-02-01T16:13:57;96979.56;;;5.98
71640;BMP280;60912;48.968;10.124;2023-02-01T16:16:24;96975.59;;;5.88
71640;BMP280;60912;48.968;10.124;2023-02-01T16:18:49;96981.56;;;5.92
71640;BMP280;60912;48.968;10.124;2023-02-01T16:21:15;96986.78;;;5.96
71640;BMP280;60912;48.968;10.124;2023-02-01T16:23:48;96978.34;;;5.94
71640;BMP280;60912;48.968;10.124;2023-02-01T16:26:14;96983.31;;;5.95
71640;BMP280;60912;48.968;10.124;2023-02-01T16:28:39;96990.53;;;5.87
71640;BMP280;60912;48.968;10.124;2023-02-01T16:31:05;96991.03;;;5.80
71640;BMP280;60912;48.968;10.124;2023-02-01T16:33:33;96995.25;;;5.70
71640;BMP280;60912;48.968;10.124;2023-02-01T16:35:59;96993.03;;;5.80
71640;BMP280;60912;48.968;10.124;2023-02-01T16:38:30;96994.75;;;5.83
71640;BMP280;60912;48.968;10.124;2023-02-01T16:40:58;96999.97;;;5.86
71640;BMP280;60912;48.968;10.124;2023-02-01T16:43:28;96984.06;;;5.90
71640;BMP280;60912;48.968;10.124;2023-02-01T16:46:00;96998.72;;;5.98
71640;BMP280;60912;48.968;10.124;2023-02-01T16:50:57;96997.25;;;5.81
71640;BMP280;60912;48.968;10.124;2023-02-01T16:53:27;96998.97;;;5.89
71640;BMP280;60912;48.968;10.124;2023-02-01T16:55:57;96996.97;;;5.95
71640;BMP280;60912;48.968;10.124;2023-02-01T16:58:24;96998.00;;;5.92
71640;BMP280;60912;48.968;10.124;2023-02-01T17:00:50;96995.75;;;5.91
71640;BMP280;60912;48.968;10.124;2023-02-01T17:03:23;96991.50;;;5.95
71640;BMP280;60912;48.968;10.124;2023-02-01T17:05:51;97000.47;;;5.90
71640;BMP280;60912;48.968;10.124;2023-02-01T17:08:27;96992.78;;;5.94
71640;BMP280;60912;48.968;10.124;2023-02-01T17:10:53;96987.78;;;5.98
71640;BMP280;60912;48.968;10.124;2023-02-01T17:13:19;96967.41;;;5.94
71640;BMP280;60912;48.968;10.124;2023-02-01T17:16:15;96976.38;;;5.94
71640;BMP280;60912;48.968;10.124;2023-02-01T17:18:41;96980.31;;;5.99
71640;BMP280;60912;48.968;10.124;2023-02-01T17:21:16;96965.66;;;5.85
71640;BMP280;60912;48.968;10.124;2023-02-01T17:23:42;96974.63;;;5.80
71640;BMP280;60912;48.968;10.124;2023-02-01T17:26:11;96975.34;;;5.75
71640;BMP280;60912;48.968;10.124;2023-02-01T17:28:36;96970.88;;;5.89
71640;BMP280;60912;48.968;10.124;2023-02-01T17:31:05;96987.53;;;5.91
71640;BMP280;60912;48.968;10.124;2023-02-01T17:33:34;96984.06;;;5.90
71640;BMP280;60912;48.968;10.124;2023-02-01T17:36:08;96987.06;;;5.92
71640;BMP280;60912;48.968;10.124;2023-02-01T17:38:35;96985.81;;;5.93
71640;BMP280;60912;48.968;10.124;2023-02-01T17:41:03;96995.00;;;5.90
71640;BMP280;60912;48.968;10.124;2023-02-01T17:43:38;96983.56;;;5.97
71640;BMP280;60912;48.968;10.124;2023-02-01T17:49:01;96981.56;;;6.03
71640;BMP280;60912;48.968;10.124;2023-02-01T17:51:28;96981.56;;;5.92
71640;BMP280;60912;48.968;10.124;2023-02-01T17:53:55;96981.06;;;6.05
71640;BMP280;60912;48.968;10.124;2023-02-01T17:56:24;96985.28;;;6.06
71640;BMP280;60912;48.968;10.124;2023-02-01T17:58:49;96992.50;;;6.15
71640;BMP280;60912;48.968;10.124;2023-02-01T18:01:30;96998.69;;;6.10
71640;BMP280;60912;48.968;10.124;2023-02-01T18:03:58;97010.16;;;6.14
71640;BMP280;60912;48.968;10.124;2023-02-01T18:06:25;96996.97;;;6.06
71640;BMP280;60912;48.968;10.124;2023-02-01T18:11:24;97008.41;;;6.11
71640;BMP280;60912;48.968;10.124;2023-02-01T18:13:52;97011.88;;;6.17
71640;BMP280;60912;48.968;10.124;2023-02-01T18:16:27;96991.00;;;6.08
71640;BMP280;60912;48.968;10.124;2023-02-01T18:18:52;97005.66;;;6.16
71640;BMP280;60912;48.968;10.124;2023-02-01T18:21:20;97009.38;;;6.24
71640;BMP280;60912;48.968;10.124;2023-02-01T18:23:48;96997.44;;;6.16
71640;BMP280;60912;48.968;10.124;2023-02-01T18:26:16;96981.56;;;6.03
71640;BMP280;60912;48.968;10.124;2023-02-01T18:28:44;96977.56;;;6.04
71640;BMP280;60912;48.968;10.124;2023-02-01T18:31:24;96971.63;;;6.00
71640;BMP280;60912;48.968;10.124;2023-02-01T18:33:59;96981.09;;;5.94
71640;BMP280;60912;48.968;10.124;2023-02-01T18:36:29;96974.59;;;6.02
71640;BMP280;60912;48.968;10.124;2023-02-01T18:38:58;96966.63;;;6.04
71640;BMP280;60912;48.968;10.124;2023-02-01T18:41:24;96970.38;;;5.90
71640;BMP280;60912;48.968;10.124;2023-02-01T18:43:51;96990.75;;;5.89
71640;BMP280;60912;48.968;10.124;2023-02-01T18:46:19;96991.53;;;6.01
71640;BMP280;60912;48.968;10.124;2023-02-01T18:48:54;96989.53;;;6.07
71640;BMP280;60912;48.968;10.124;2023-02-01T18:51:44;96988.75;;;6.12
71640;BMP280;60912;48.968;10.124;2023-02-01T18:54:10;96995.97;;;6.04
71640;BMP280;60912;48.968;10.124;2023-02-01T18:56:47;97017.13;;;6.15
71640;BMP280;60912;48.968;10.124;2023-02-01T18:59:12;96995.50;;;6.05
71640;BMP280;60912;48.968;10.124;2023-02-01T19:01:38;97007.66;;;6.10
71640;BMP280;60912;48.968;10.124;2023-02-01T19:04:04;97007.91;;;6.18
71640;BMP280;60912;48.968;10.124;2023-02-01T19:06:30;97014.84;;;6.30
71640;BMP280;60912;48.968;10.124;2023-02-01T19:08:56;97006.88;;;6.32
71640;BMP280;60912;48.968;10.124;2023-02-01T19:11:39;96996.66;;;6.38